Time;durP1;ratioP1;P1;durP2;ratioP2;P2;SDS_P1;SDS_P2;PMS_P1;PMS_P2;Temp;Humidity;BMP_temperature;BMP_pressure;BME280_temperature;BME280_humidity;BME280_pressure;Samples;Min_cycle;Max_cycle;Signal;HPM_P1;HPM_P2
2022/07/20 00:00:07;;;;;;;6.95;3.65;;;;;;;;;;5056618;28;20366;-85
2022/07/20 00:02:32;;;;;;;4.78;3.03;;;;;;;;;;5057206;28;20040;-86
2022/07/20 00:04:58;;;;;;;11.95;3.85;;;;;;;;;;5061755;28;20459;-85
2022/07/20 00:07:23;;;;;;;7.65;3.40;;;;;;;;;;5065719;28;20028;-88
2022/07/20 00:12:32;;;;;;;6.93;3.63;;;;;;;;;;5060710;28;20035;-87
2022/07/20 00:14:58;;;;;;;8.18;3.95;;;;;;;;;;5063836;28;20021;-86
2022/07/20 00:17:23;;;;;;;8.95;3.60;;;;;;;;;;5063625;28;20033;-87
2022/07/20 00:19:49;;;;;;;5.90;3.22;;;;;;;;;;5058499;28;20512;-86
2022/07/20 00:22:14;;;;;;;8.13;3.50;;;;;;;;;;5059406;28;20016;-86
2022/07/20 00:24:39;;;;;;;5.75;4.60;;;;;;;;;;5062898;28;20112;-86
2022/07/20 00:27:05;;;;;;;8.27;3.47;;;;;;;;;;5064741;28;20020;-86
2022/07/20 00:29:30;;;;;;;9.40;3.60;;;;;;;;;;5065253;28;20074;-86
2022/07/20 00:31:56;;;;;;;5.50;3.83;;;;;;;;;;5059767;28;20016;-87
2022/07/20 00:34:21;;;;;;;5.15;3.58;;;;;;;;;;5063196;28;20059;-86
2022/07/20 00:36:47;;;;;;;8.27;3.65;;;;;;;;;;5067113;28;20456;-87
2022/07/20 00:39:12;;;;;;;6.43;3.28;;;;;;;;;;5059323;28;20098;-86
2022/07/20 00:41:38;;;;;;;7.65;3.65;;;;;;;;;;5056988;28;20078;-86
2022/07/20 00:44:06;;;;;;;6.10;3.17;;;;;;;;;;5069619;28;20096;-86
2022/07/20 00:46:35;;;;;;;11.48;3.65;;;;;;;;;;5064719;28;20032;-86
2022/07/20 00:49:01;;;;;;;6.45;3.53;;;;;;;;;;5054314;28;20484;-85
2022/07/20 00:51:27;;;;;;;7.13;3.88;;;;;;;;;;5063846;28;20028;-85
2022/07/20 00:53:53;;;;;;;5.88;3.75;;;;;;;;;;5063549;28;20028;-86
2022/07/20 00:56:22;;;;;;;9.07;3.83;;;;;;;;;;5060267;28;20088;-86
2022/07/20 00:58:48;;;;;;;6.30;3.25;;;;;;;;;;5057248;28;20096;-85
2022/07/20 01:01:15;;;;;;;5.50;3.63;;;;;;;;;;5063072;28;20051;-86
2022/07/20 01:03:41;;;;;;;5.32;3.35;;;;;;;;;;5059496;28;20021;-85
2022/07/20 01:06:06;;;;;;;9.15;3.58;;;;;;;;;;5064146;28;20028;-86
2022/07/20 01:08:32;;;;;;;8.02;3.30;;;;;;;;;;5056042;28;20048;-86
2022/07/20 01:10:58;;;;;;;12.88;3.55;;;;;;;;;;5065129;28;20085;-86
2022/07/20 01:13:24;;;;;;;5.85;3.17;;;;;;;;;;5068891;28;20048;-87
2022/07/20 01:15:49;;;;;;;6.65;3.53;;;;;;;;;;5070780;28;20040;-85
2022/07/20 01:18:15;;;;;;;7.72;3.42;;;;;;;;;;5060679;28;20048;-87
2022/07/20 01:20:45;;;;;;;4.85;3.42;;;;;;;;;;5063068;28;20047;-85
2022/07/20 01:23:10;;;;;;;5.70;3.38;;;;;;;;;;5074832;28;20029;-85
2022/07/20 01:25:36;;;;;;;6.35;3.65;;;;;;;;;;5076933;28;20184;-84
2022/07/20 01:28:06;;;;;;;5.85;3.33;;;;;;;;;;5076568;28;20027;-83
2022/07/20 01:30:31;;;;;;;5.88;3.40;;;;;;;;;;5066778;28;20123;-83
2022/07/20 01:32:57;;;;;;;11.80;3.10;;;;;;;;;;5070155;28;20021;-83
2022/07/20 01:35:22;;;;;;;6.53;3.20;;;;;;;;;;5072337;28;20024;-83
2022/07/20 01:37:48;;;;;;;6.90;3.33;;;;;;;;;;5066973;28;20024;-83
2022/07/20 01:40:13;;;;;;;6.55;3.65;;;;;;;;;;5072503;28;20092;-83
2022/07/20 01:42:38;;;;;;;9.77;3.63;;;;;;;;;;5075016;28;20024;-83
2022/07/20 01:45:04;;;;;;;7.82;3.58;;;;;;;;;;5076559;28;20049;-83
2022/07/20 01:47:30;;;;;;;6.53;3.60;;;;;;;;;;5077559;28;20029;-83
2022/07/20 01:49:55;;;;;;;4.88;3.08;;;;;;;;;;5079223;28;20119;-83
2022/07/20 01:52:20;;;;;;;8.70;3.42;;;;;;;;;;5075028;28;20013;-84
2022/07/20 01:54:46;;;;;;;7.50;3.38;;;;;;;;;;5082041;28;20028;-83
2022/07/20 01:57:11;;;;;;;4.55;3.13;;;;;;;;;;5068443;28;20032;-84
2022/07/20 01:59:36;;;;;;;5.78;3.60;;;;;;;;;;5086086;28;20033;-84
2022/07/20 02:02:02;;;;;;;6.15;3.40;;;;;;;;;;5075048;28;20032;-84
2022/07/20 02:04:27;;;;;;;6.57;3.60;;;;;;;;;;5074291;28;20047;-83
2022/07/20 02:06:52;;;;;;;5.90;3.10;;;;;;;;;;5075673;28;20021;-86
2022/07/20 02:09:18;;;;;;;5.28;3.58;;;;;;;;;;5070847;28;20021;-84
2022/07/20 02:11:43;;;;;;;6.55;3.40;;;;;;;;;;5072447;28;20025;-83
2022/07/20 02:14:09;;;;;;;4.40;3.00;;;;;;;;;;5069893;28;20032;-84
2022/07/20 02:16:34;;;;;;;6.78;3.13;;;;;;;;;;5072010;28;20458;-83
2022/07/20 02:19:02;;;;;;;7.13;3.72;;;;;;;;;;5066026;28;20094;-84
2022/07/20 02:21:29;;;;;;;9.85;3.45;;;;;;;;;;5074253;28;20035;-82
2022/07/20 02:23:55;;;;;;;7.45;3.55;;;;;;;;;;5072211;28;20050;-82
2022/07/20 02:26:21;;;;;;;5.10;3.50;;;;;;;;;;5073707;28;20348;-83
2022/07/20 02:28:46;;;;;;;7.43;3.25;;;;;;;;;;5075201;28;20036;-83
2022/07/20 02:31:12;;;;;;;4.53;3.22;;;;;;;;;;5067422;28;20063;-83
2022/07/20 02:33:37;;;;;;;4.72;3.08;;;;;;;;;;5078291;28;20025;-85
2022/07/20 02:36:03;;;;;;;5.88;3.45;;;;;;;;;;5083968;28;20025;-81
2022/07/20 02:38:28;;;;;;;5.18;3.42;;;;;;;;;;5075392;28;20053;-82
2022/07/20 02:40:54;;;;;;;8.82;3.20;;;;;;;;;;5072858;28;20418;-83
2022/07/20 02:43:20;;;;;;;5.97;3.22;;;;;;;;;;5075778;28;20039;-83
2022/07/20 02:45:45;;;;;;;5.70;3.33;;;;;;;;;;5084740;28;20416;-82
2022/07/20 02:48:11;;;;;;;6.28;3.20;;;;;;;;;;5079919;28;20028;-83
2022/07/20 02:50:38;;;;;;;7.05;3.53;;;;;;;;;;5074796;28;20519;-82
2022/07/20 02:53:05;;;;;;;6.13;3.60;;;;;;;;;;5067560;28;20031;-83
2022/07/20 02:55:31;;;;;;;4.85;3.33;;;;;;;;;;5069514;28;20020;-83
2022/07/20 02:57:57;;;;;;;8.75;3.50;;;;;;;;;;5070528;28;20079;-83
2022/07/20 03:00:23;;;;;;;7.68;3.47;;;;;;;;;;5069042;28;20036;-82
2022/07/20 03:02:49;;;;;;;8.48;3.45;;;;;;;;;;5073163;28;20031;-81
2022/07/20 03:05:15;;;;;;;11.02;3.65;;;;;;;;;;5069428;28;20020;-82
2022/07/20 03:07:40;;;;;;;6.13;3.10;;;;;;;;;;5073157;28;20039;-82
2022/07/20 03:10:07;;;;;;;7.53;3.40;;;;;;;;;;5072999;28;20024;-83
2022/07/20 03:12:32;;;;;;;6.13;3.50;;;;;;;;;;5074369;28;20028;-84
2022/07/20 03:14:58;;;;;;;10.18;3.80;;;;;;;;;;5072170;28;20470;-83
2022/07/20 03:17:23;;;;;;;6.32;3.53;;;;;;;;;;5065813;28;20075;-83
2022/07/20 03:19:49;;;;;;;7.18;3.30;;;;;;;;;;5071582;28;20032;-83
2022/07/20 03:22:14;;;;;;;7.47;3.40;;;;;;;;;;5072393;28;20127;-82
2022/07/20 03:24:40;;;;;;;6.95;3.80;;;;;;;;;;5078147;28;20057;-80
2022/07/20 03:27:05;;;;;;;5.45;3.10;;;;;;;;;;5076222;28;20027;-83
2022/07/20 03:29:31;;;;;;;13.82;3.95;;;;;;;;;;5066694;28;20144;-83
2022/07/20 03:31:56;;;;;;;9.13;4.07;;;;;;;;;;5072750;28;20044;-85
2022/07/20 03:34:21;;;;;;;5.35;3.47;;;;;;;;;;5071189;28;20024;-83
2022/07/20 03:36:48;;;;;;;6.22;3.17;;;;;;;;;;5071948;28;20115;-83
2022/07/20 03:39:14;;;;;;;6.65;3.45;;;;;;;;;;5068302;28;20162;-84
2022/07/20 03:41:40;;;;;;;5.15;3.60;;;;;;;;;;5071196;28;20044;-84
2022/07/20 03:44:05;;;;;;;8.70;4.07;;;;;;;;;;5069752;28;20024;-83
2022/07/20 03:46:31;;;;;;;9.27;4.35;;;;;;;;;;5070981;28;20028;-84
2022/07/20 03:48:56;;;;;;;11.70;3.78;;;;;;;;;;5064974;28;20028;-85
2022/07/20 03:51:21;;;;;;;10.00;4.07;;;;;;;;;;5066789;28;20450;-85
2022/07/20 03:53:47;;;;;;;6.43;4.15;;;;;;;;;;5075287;28;20100;-85
2022/07/20 03:56:12;;;;;;;10.00;4.15;;;;;;;;;;5072147;28;20024;-85
2022/07/20 03:58:38;;;;;;;6.32;3.35;;;;;;;;;;5070486;28;20119;-86
2022/07/20 04:01:03;;;;;;;4.75;3.35;;;;;;;;;;5074122;28;20485;-86
2022/07/20 04:03:28;;;;;;;5.55;2.95;;;;;;;;;;5069490;28;20116;-87
2022/07/20 04:05:54;;;;;;;9.55;3.60;;;;;;;;;;5073426;28;20143;-85
2022/07/20 04:08:19;;;;;;;4.95;3.25;;;;;;;;;;5064291;28;20025;-85
2022/07/20 04:10:45;;;;;;;8.70;3.60;;;;;;;;;;5065664;28;20028;-84
2022/07/20 04:13:10;;;;;;;6.88;3.78;;;;;;;;;;5061651;28;20024;-86
2022/07/20 04:15:35;;;;;;;5.07;3.60;;;;;;;;;;5067567;28;20020;-85
2022/07/20 04:18:01;;;;;;;10.55;3.60;;;;;;;;;;5064706;28;20025;-85
2022/07/20 04:20:26;;;;;;;11.38;4.07;;;;;;;;;;5060370;28;20024;-84
2022/07/20 04:22:52;;;;;;;9.32;3.63;;;;;;;;;;5071090;28;20293;-84
2022/07/20 04:25:18;;;;;;;7.90;3.75;;;;;;;;;;5064270;28;20036;-85
2022/07/20 04:27:44;;;;;;;7.70;3.80;;;;;;;;;;5066081;28;20028;-85
2022/07/20 04:30:11;;;;;;;8.93;3.60;;;;;;;;;;5066847;28;20028;-84
2022/07/20 04:32:37;;;;;;;5.00;3.50;;;;;;;;;;5071395;28;20025;-84
2022/07/20 04:35:02;;;;;;;5.40;3.35;;;;;;;;;;5080519;28;20400;-85
2022/07/20 04:37:28;;;;;;;7.55;3.53;;;;;;;;;;5069927;28;20047;-84
2022/07/20 04:39:53;;;;;;;8.77;4.28;;;;;;;;;;5070338;28;20035;-85
2022/07/20 04:42:19;;;;;;;8.05;4.15;;;;;;;;;;5070872;28;20024;-85
2022/07/20 04:44:44;;;;;;;6.90;3.92;;;;;;;;;;5071428;28;20021;-85
2022/07/20 04:47:10;;;;;;;7.40;3.55;;;;;;;;;;5069068;28;20374;-85
2022/07/20 04:49:35;;;;;;;9.07;3.63;;;;;;;;;;5065241;28;20082;-84
2022/07/20 04:52:01;;;;;;;9.00;4.10;;;;;;;;;;5067886;28;20390;-85
2022/07/20 04:54:26;;;;;;;5.65;3.67;;;;;;;;;;5070429;28;20038;-84
2022/07/20 04:56:52;;;;;;;10.45;4.15;;;;;;;;;;5068186;28;20024;-85
2022/07/20 04:59:17;;;;;;;8.23;4.22;;;;;;;;;;5064966;28;20103;-85
2022/07/20 05:01:42;;;;;;;17.00;4.15;;;;;;;;;;5068273;28;20078;-85
2022/07/20 05:04:08;;;;;;;9.32;4.07;;;;;;;;;;5066800;28;20059;-85
2022/07/20 05:06:34;;;;;;;9.57;3.90;;;;;;;;;;5071922;28;20150;-86
2022/07/20 05:08:59;;;;;;;8.27;4.75;;;;;;;;;;5066242;28;20088;-85
2022/07/20 05:11:26;;;;;;;8.07;3.80;;;;;;;;;;5062820;28;20075;-85
2022/07/20 05:13:53;;;;;;;19.05;4.30;;;;;;;;;;5062285;28;20374;-86
2022/07/20 05:16:20;;;;;;;6.05;4.25;;;;;;;;;;5069433;28;20020;-85
2022/07/20 05:18:46;;;;;;;8.35;3.95;;;;;;;;;;5071493;28;20463;-86
2022/07/20 05:21:11;;;;;;;11.57;3.95;;;;;;;;;;5063853;28;20025;-85
2022/07/20 05:23:37;;;;;;;12.05;4.15;;;;;;;;;;5065716;28;20067;-85
2022/07/20 05:26:03;;;;;;;5.80;3.60;;;;;;;;;;5066957;28;20179;-87
2022/07/20 05:28:29;;;;;;;8.93;4.13;;;;;;;;;;5082442;28;20024;-87
2022/07/20 05:30:54;;;;;;;7.03;3.92;;;;;;;;;;5066031;28;20531;-86
2022/07/20 05:33:20;;;;;;;7.00;3.90;;;;;;;;;;5068486;28;20409;-86
2022/07/20 05:35:45;;;;;;;8.80;3.90;;;;;;;;;;5070040;28;20073;-86
2022/07/20 05:38:12;;;;;;;9.35;4.68;;;;;;;;;;5071851;28;20028;-86
2022/07/20 05:40:37;;;;;;;12.00;3.60;;;;;;;;;;5063323;28;20057;-87
2022/07/20 05:43:02;;;;;;;5.13;3.42;;;;;;;;;;5063831;28;20112;-85
2022/07/20 05:45:28;;;;;;;9.05;4.15;;;;;;;;;;5066732;28;20080;-85
2022/07/20 05:47:53;;;;;;;7.82;3.70;;;;;;;;;;5073922;28;20087;-84
2022/07/20 05:50:19;;;;;;;6.85;3.67;;;;;;;;;;5067703;28;20033;-85
2022/07/20 05:52:44;;;;;;;7.47;3.30;;;;;;;;;;5057776;28;20382;-85
2022/07/20 05:55:09;;;;;;;9.73;3.53;;;;;;;;;;5059486;28;20021;-85
2022/07/20 05:57:35;;;;;;;6.38;3.65;;;;;;;;;;5071538;28;20028;-86
2022/07/20 06:00:00;;;;;;;6.05;3.70;;;;;;;;;;5063885;28;20493;-85
2022/07/20 06:02:26;;;;;;;12.57;3.47;;;;;;;;;;5067788;28;20029;-85
2022/07/20 06:04:51;;;;;;;7.43;3.33;;;;;;;;;;5069675;28;20106;-85
2022/07/20 06:07:16;;;;;;;6.65;3.33;;;;;;;;;;5081505;28;20032;-88
2022/07/20 06:09:42;;;;;;;8.95;3.60;;;;;;;;;;5083650;28;20033;-84
2022/07/20 06:12:08;;;;;;;6.65;3.72;;;;;;;;;;5073092;28;20028;-86
2022/07/20 06:14:33;;;;;;;7.10;3.03;;;;;;;;;;5087434;28;20059;-86
2022/07/20 06:16:58;;;;;;;4.72;3.00;;;;;;;;;;5086548;28;20084;-86
2022/07/20 06:19:24;;;;;;;5.55;3.35;;;;;;;;;;5080461;28;20025;-88
2022/07/20 06:21:49;;;;;;;10.45;3.30;;;;;;;;;;5073470;28;20048;-85
2022/07/20 06:24:14;;;;;;;7.95;3.38;;;;;;;;;;5068556;28;20032;-83
2022/07/20 06:26:40;;;;;;;7.05;2.90;;;;;;;;;;5068678;28;20485;-82
2022/07/20 06:29:05;;;;;;;11.25;3.55;;;;;;;;;;5064442;28;20331;-82
2022/07/20 06:31:31;;;;;;;6.30;3.72;;;;;;;;;;5064057;28;20037;-82
2022/07/20 06:33:56;;;;;;;6.18;3.35;;;;;;;;;;5060098;28;20490;-82
2022/07/20 06:36:22;;;;;;;6.18;2.70;;;;;;;;;;5061158;28;20054;-83
2022/07/20 06:38:47;;;;;;;9.15;3.70;;;;;;;;;;5094526;22;20040;-81
2022/07/20 06:41:12;;;;;;;5.75;3.60;;;;;;;;;;5082352;28;20060;-81
2022/07/20 06:43:38;;;;;;;6.65;3.15;;;;;;;;;;5082647;28;20040;-82
2022/07/20 06:46:03;;;;;;;6.70;2.90;;;;;;;;;;5064301;28;20021;-81
2022/07/20 06:48:28;;;;;;;8.30;3.28;;;;;;;;;;5063012;28;20465;-81
2022/07/20 06:50:54;;;;;;;7.45;3.10;;;;;;;;;;5076447;28;20047;-82
2022/07/20 06:53:19;;;;;;;6.40;3.30;;;;;;;;;;5066464;28;20047;-82
2022/07/20 06:55:45;;;;;;;13.77;3.40;;;;;;;;;;5060714;28;20051;-82
2022/07/20 06:58:11;;;;;;;7.40;3.63;;;;;;;;;;5051802;28;20018;-82
2022/07/20 07:00:40;;;;;;;3.85;3.15;;;;;;;;;;5094246;22;20049;-83
2022/07/20 07:03:17;;;;;;;9.13;3.75;;;;;;;;;;5056377;28;20028;-81
2022/07/20 07:06:05;;;;;;;5.43;3.42;;;;;;;;;;5057089;28;20021;-83
2022/07/20 07:08:31;;;;;;;4.80;3.22;;;;;;;;;;5056176;28;20032;-84
2022/07/20 07:11:02;;;;;;;8.88;3.90;;;;;;;;;;5071449;22;20494;-82
2022/07/20 07:13:31;;;;;;;8.95;3.88;;;;;;;;;;5056566;28;20044;-84
2022/07/20 07:15:57;;;;;;;11.85;3.47;;;;;;;;;;5056015;28;20074;-84
2022/07/20 07:18:22;;;;;;;6.63;3.67;;;;;;;;;;5057214;28;20037;-84
2022/07/20 07:20:47;;;;;;;6.38;3.55;;;;;;;;;;5067707;28;20052;-84
2022/07/20 07:23:13;;;;;;;10.95;3.95;;;;;;;;;;5058662;28;20037;-83
2022/07/20 07:25:39;;;;;;;10.98;3.58;;;;;;;;;;5057596;28;20013;-84
2022/07/20 07:28:04;;;;;;;5.65;3.22;;;;;;;;;;5056615;28;20033;-84
2022/07/20 07:30:29;;;;;;;7.70;3.47;;;;;;;;;;5053789;28;20441;-83
2022/07/20 07:32:55;;;;;;;7.13;3.88;;;;;;;;;;5067198;28;20477;-82
2022/07/20 07:35:20;;;;;;;7.07;3.47;;;;;;;;;;5063747;28;20476;-84
2022/07/20 07:37:45;;;;;;;6.07;3.40;;;;;;;;;;5077109;28;20020;-83
2022/07/20 07:40:11;;;;;;;11.60;3.90;;;;;;;;;;5064353;28;20036;-84
2022/07/20 07:42:37;;;;;;;10.55;4.18;;;;;;;;;;5064103;28;20032;-83
2022/07/20 07:45:06;;;;;;;9.77;3.97;;;;;;;;;;5062532;28;20429;-82
2022/07/20 07:47:33;;;;;;;8.52;3.85;;;;;;;;;;5060584;28;20363;-85
2022/07/20 07:50:02;;;;;;;10.05;3.70;;;;;;;;;;5049926;28;20040;-83
2022/07/20 07:52:29;;;;;;;8.40;3.85;;;;;;;;;;5049477;28;20078;-84
2022/07/20 07:55:00;;;;;;;14.20;4.20;;;;;;;;;;5065438;28;20057;-84
2022/07/20 07:57:25;;;;;;;;;;;;;;;;;;5064613;28;20033;-84
2022/07/20 07:59:50;;;;;;;6.87;3.80;;;;;;;;;;5057187;28;19920;-83
2022/07/20 08:02:19;;;;;;;8.25;3.75;;;;;;;;;;5070821;28;20269;-84
2022/07/20 08:04:44;;;;;;;9.40;4.18;;;;;;;;;;5063507;28;20472;-84
2022/07/20 08:07:17;;;;;;;9.13;4.40;;;;;;;;;;5062879;28;20483;-84
2022/07/20 08:09:43;;;;;;;8.25;4.13;;;;;;;;;;5061597;28;20060;-84
2022/07/20 08:12:08;;;;;;;8.27;4.22;;;;;;;;;;5066246;28;20080;-85
2022/07/20 08:14:34;;;;;;;8.75;3.90;;;;;;;;;;5062264;28;20049;-85
2022/07/20 08:16:59;;;;;;;6.47;4.07;;;;;;;;;;5062694;28;20078;-84
2022/07/20 08:19:25;;;;;;;9.55;4.18;;;;;;;;;;5047374;28;20029;-85
2022/07/20 08:21:50;;;;;;;7.85;4.13;;;;;;;;;;5055879;28;20029;-83
2022/07/20 08:24:16;;;;;;;14.02;4.05;;;;;;;;;;5064011;28;20036;-84
2022/07/20 08:26:43;;;;;;;14.80;3.97;;;;;;;;;;5053925;28;20033;-84
2022/07/20 08:29:09;;;;;;;9.05;3.83;;;;;;;;;;5068557;28;20033;-84
2022/07/20 08:31:34;;;;;;;7.28;4.20;;;;;;;;;;5055492;28;20025;-84
2022/07/20 08:34:00;;;;;;;6.88;4.13;;;;;;;;;;5064278;28;20033;-85
2022/07/20 08:36:25;;;;;;;8.50;4.22;;;;;;;;;;5064464;28;20021;-85
2022/07/20 08:38:50;;;;;;;6.82;3.67;;;;;;;;;;5063743;28;20487;-85
2022/07/20 08:41:16;;;;;;;6.93;4.00;;;;;;;;;;5063618;28;20035;-83
2022/07/20 08:43:41;;;;;;;9.32;4.07;;;;;;;;;;5064497;28;20025;-84
2022/07/20 08:46:07;;;;;;;6.35;3.90;;;;;;;;;;5062771;28;20108;-85
2022/07/20 08:48:34;;;;;;;15.60;4.80;;;;;;;;;;5062061;28;20036;-84
2022/07/20 08:51:00;;;;;;;7.05;4.07;;;;;;;;;;5064149;28;20081;-84
2022/07/20 08:53:25;;;;;;;12.95;3.60;;;;;;;;;;5064070;28;20102;-84
2022/07/20 08:55:51;;;;;;;7.38;3.95;;;;;;;;;;5063302;28;20167;-83
2022/07/20 08:58:16;;;;;;;6.68;3.75;;;;;;;;;;5063034;28;20055;-85
2022/07/20 09:00:42;;;;;;;7.85;3.67;;;;;;;;;;5070645;28;20029;-85
2022/07/20 09:03:08;;;;;;;6.43;3.92;;;;;;;;;;5063181;28;20051;-84
2022/07/20 09:05:39;;;;;;;11.07;3.88;;;;;;;;;;5063224;28;20025;-85
2022/07/20 09:08:07;;;;;;;9.10;3.95;;;;;;;;;;5059677;28;20033;-84
2022/07/20 09:10:47;;;;;;;6.32;3.53;;;;;;;;;;5098708;22;20525;-85
2022/07/20 09:13:21;;;;;;;8.20;3.17;;;;;;;;;;5065069;28;20045;-84
2022/07/20 09:15:53;;;;;;;8.88;3.45;;;;;;;;;;5064831;28;20040;-84
2022/07/20 09:18:33;;;;;;;9.40;3.35;;;;;;;;;;5066191;28;20035;-85
2022/07/20 09:21:45;;;;;;;4.10;3.20;;;;;;;;;;5053068;28;20025;-85
2022/07/20 09:24:10;;;;;;;7.38;3.22;;;;;;;;;;5049628;28;20085;-85
2022/07/20 09:26:39;;;;;;;7.75;3.45;;;;;;;;;;5044611;28;20021;-84
2022/07/20 09:29:06;;;;;;;10.40;3.38;;;;;;;;;;5046529;28;20053;-84
2022/07/20 09:31:34;;;;;;;7.78;3.33;;;;;;;;;;5043604;28;20033;-85
2022/07/20 09:34:07;;;;;;;6.57;3.83;;;;;;;;;;5043653;28;20089;-83
2022/07/20 09:36:38;;;;;;;8.25;3.67;;;;;;;;;;5046674;28;20041;-85
2022/07/20 09:39:22;;;;;;;;;;;;;;;;;;5050175;28;20029;-85
2022/07/20 09:41:53;;;;;;;10.57;3.55;;;;;;;;;;5041871;28;19920;-85
2022/07/20 09:44:27;;;;;;;9.52;3.60;;;;;;;;;;5046985;28;20029;-83
2022/07/20 09:46:52;;;;;;;8.73;3.75;;;;;;;;;;5045748;28;20037;-84
2022/07/20 09:49:29;;;;;;;7.13;3.10;;;;;;;;;;5042795;28;20029;-85
2022/07/20 09:52:00;;;;;;;4.68;3.20;;;;;;;;;;5044958;28;20037;-84
2022/07/20 09:54:25;;;;;;;6.78;3.50;;;;;;;;;;5041893;28;20129;-85
2022/07/20 09:56:52;;;;;;;7.35;3.92;;;;;;;;;;5042782;28;20491;-85
2022/07/20 09:59:19;;;;;;;7.68;3.42;;;;;;;;;;5042329;28;20036;-83
2022/07/20 10:01:51;;;;;;;6.68;3.50;;;;;;;;;;5039950;28;20053;-85
2022/07/20 10:04:17;;;;;;;8.02;3.65;;;;;;;;;;5036372;28;20029;-83
2022/07/20 10:06:46;;;;;;;5.75;2.97;;;;;;;;;;5041144;28;20022;-84
2022/07/20 10:09:14;;;;;;;5.95;3.42;;;;;;;;;;5042428;28;20372;-85
2022/07/20 10:11:40;;;;;;;8.13;3.28;;;;;;;;;;5056052;28;20020;-85
2022/07/20 10:14:07;;;;;;;12.85;3.45;;;;;;;;;;5050254;28;20033;-85
2022/07/20 10:16:49;;;;;;;8.93;3.42;;;;;;;;;;5040962;28;20025;-84
2022/07/20 10:19:15;;;;;;;5.35;3.40;;;;;;;;;;5054952;28;20283;-85
2022/07/20 10:21:50;;;;;;;6.20;4.10;;;;;;;;;;5023297;28;20057;-85
2022/07/20 10:24:27;;;;;;;8.52;3.58;;;;;;;;;;5036128;28;20053;-85
2022/07/20 10:27:18;;;;;;;9.18;3.80;;;;;;;;;;5041940;28;20582;-84
2022/07/20 10:29:52;;;;;;;4.55;3.33;;;;;;;;;;5042027;28;20056;-85
2022/07/20 10:32:22;;;;;;;4.97;3.28;;;;;;;;;;5044238;28;20497;-85
2022/07/20 10:34:52;;;;;;;5.20;4.00;;;;;;;;;;5038918;28;20025;-85
2022/07/20 10:37:21;;;;;;;8.50;3.25;;;;;;;;;;5042076;28;20037;-85
2022/07/20 10:39:47;;;;;;;4.93;3.50;;;;;;;;;;5062467;28;20055;-84
2022/07/20 10:42:23;;;;;;;5.20;3.38;;;;;;;;;;5062296;28;20029;-84
2022/07/20 10:44:50;;;;;;;5.50;3.75;;;;;;;;;;5069948;28;20048;-85
2022/07/20 10:47:47;;;;;;;4.85;3.75;;;;;;;;;;5045247;28;20052;-84
2022/07/20 10:50:39;;;;;;;9.00;3.80;;;;;;;;;;5045829;28;20464;-83
2022/07/20 10:53:10;;;;;;;5.35;3.20;;;;;;;;;;5061678;28;20025;-84
2022/07/20 10:55:36;;;;;;;6.00;3.55;;;;;;;;;;5053207;28;20025;-85
2022/07/20 10:58:09;;;;;;;5.55;3.38;;;;;;;;;;5061255;28;20048;-84
2022/07/20 11:00:40;;;;;;;5.90;3.35;;;;;;;;;;5041675;28;20116;-84
2022/07/20 11:03:14;;;;;;;4.38;3.47;;;;;;;;;;5072790;28;20386;-86
2022/07/20 11:05:40;;;;;;;6.88;3.88;;;;;;;;;;5083677;28;20066;-85
2022/07/20 11:08:08;;;;;;;5.53;3.17;;;;;;;;;;5064548;28;20497;-84
2022/07/20 11:10:35;;;;;;;5.32;3.47;;;;;;;;;;5057251;28;20028;-84
2022/07/20 11:13:06;;;;;;;5.78;3.53;;;;;;;;;;5054965;28;20029;-85
2022/07/20 11:15:37;;;;;;;7.22;4.50;;;;;;;;;;5043630;28;20021;-83
2022/07/20 11:18:04;;;;;;;5.53;3.42;;;;;;;;;;5060598;28;20029;-84
2022/07/20 11:20:29;;;;;;;7.53;3.55;;;;;;;;;;5042164;28;20367;-84
2022/07/20 11:22:59;;;;;;;3.75;3.20;;;;;;;;;;5063988;28;20024;-82
2022/07/20 11:25:26;;;;;;;8.25;4.05;;;;;;;;;;5062982;28;20032;-83
2022/07/20 11:28:00;;;;;;;6.30;3.58;;;;;;;;;;5044689;28;20039;-85
2022/07/20 11:30:35;;;;;;;7.78;3.85;;;;;;;;;;5046055;28;20032;-84
2022/07/20 11:33:00;;;;;;;5.50;3.70;;;;;;;;;;5057951;28;20045;-83
2022/07/20 11:35:26;;;;;;;5.90;3.65;;;;;;;;;;5061482;28;20083;-85
2022/07/20 11:37:53;;;;;;;8.55;4.38;;;;;;;;;;5062890;28;20039;-84
2022/07/20 11:40:19;;;;;;;5.28;3.67;;;;;;;;;;5040104;28;20025;-85
2022/07/20 11:43:08;;;;;;;8.80;3.92;;;;;;;;;;5058274;28;20029;-84
2022/07/20 11:45:34;;;;;;;6.63;4.00;;;;;;;;;;5047497;28;20024;-84
2022/07/20 11:48:03;;;;;;;5.10;3.60;;;;;;;;;;5069724;28;20024;-83
2022/07/20 11:50:32;;;;;;;7.78;3.80;;;;;;;;;;5051140;28;20025;-84
2022/07/20 11:52:58;;;;;;;6.70;4.05;;;;;;;;;;5064423;28;20041;-83
2022/07/20 11:55:33;;;;;;;9.45;4.28;;;;;;;;;;5065517;28;20069;-83
2022/07/20 11:57:58;;;;;;;8.52;4.20;;;;;;;;;;5065760;28;20036;-83
2022/07/20 12:00:26;;;;;;;6.32;4.00;;;;;;;;;;5051452;28;20021;-82
2022/07/20 12:02:52;;;;;;;8.82;4.82;;;;;;;;;;5041718;28;20033;-84
2022/07/20 12:05:17;;;;;;;6.85;4.07;;;;;;;;;;5065416;28;20037;-84
2022/07/20 12:10:27;;;;;;;8.05;4.63;;;;;;;;;;5072960;28;20130;-82
2022/07/20 12:13:05;;;;;;;7.05;4.53;;;;;;;;;;5068039;28;20461;-83
2022/07/20 12:15:31;;;;;;;10.05;4.82;;;;;;;;;;5047722;28;20035;-84
2022/07/20 12:17:56;;;;;;;6.68;4.32;;;;;;;;;;5044609;28;20029;-84
2022/07/20 12:20:24;;;;;;;8.75;4.70;;;;;;;;;;5069449;28;20099;-83
2022/07/20 12:22:52;;;;;;;7.25;4.93;;;;;;;;;;5063431;28;20032;-83
2022/07/20 12:25:17;;;;;;;8.88;5.43;;;;;;;;;;5071243;28;20097;-83
2022/07/20 12:27:43;;;;;;;12.85;6.10;;;;;;;;;;5064574;28;20491;-86
2022/07/20 12:30:28;;;;;;;9.50;6.05;;;;;;;;;;5063413;28;20035;-85
2022/07/20 12:33:10;;;;;;;13.05;6.18;;;;;;;;;;5060731;28;20017;-82
2022/07/20 12:35:37;;;;;;;8.35;6.53;;;;;;;;;;5063250;28;20043;-84
2022/07/20 12:38:03;;;;;;;11.07;6.32;;;;;;;;;;5065078;28;20035;-82
2022/07/20 12:40:44;;;;;;;10.85;6.30;;;;;;;;;;5061433;28;20354;-83
2022/07/20 12:43:31;;;;;;;9.93;5.65;;;;;;;;;;5061169;28;20033;-82
2022/07/20 12:46:00;;;;;;;8.32;6.90;;;;;;;;;;5058690;28;20264;-80
2022/07/20 12:48:25;;;;;;;10.95;7.50;;;;;;;;;;5060229;28;20028;-83
2022/07/20 12:50:51;;;;;;;15.88;7.45;;;;;;;;;;5046149;28;20019;-83
2022/07/20 12:53:16;;;;;;;12.10;7.32;;;;;;;;;;5089833;28;20024;-82
2022/07/20 12:55:42;;;;;;;9.80;6.90;;;;;;;;;;5067320;28;20026;-81
2022/07/20 12:58:07;;;;;;;9.63;6.85;;;;;;;;;;5063245;28;20056;-82
2022/07/20 13:00:32;;;;;;;12.75;7.53;;;;;;;;;;5062633;28;20021;-83
2022/07/20 13:02:58;;;;;;;12.57;7.75;;;;;;;;;;5056977;28;20436;-83
2022/07/20 13:05:23;;;;;;;12.27;6.95;;;;;;;;;;5070222;28;20029;-83
2022/07/20 13:07:48;;;;;;;10.00;7.43;;;;;;;;;;5059057;28;20104;-86
2022/07/20 13:10:14;;;;;;;17.95;7.57;;;;;;;;;;5060407;28;20029;-84
2022/07/20 13:12:40;;;;;;;15.43;7.93;;;;;;;;;;5070979;28;20043;-83
2022/07/20 13:15:06;;;;;;;10.43;7.50;;;;;;;;;;5056376;28;20022;-85
2022/07/20 13:17:35;;;;;;;12.80;8.30;;;;;;;;;;5036265;28;20099;-84
2022/07/20 13:20:01;;;;;;;14.07;7.45;;;;;;;;;;5054246;28;20028;-82
2022/07/20 13:22:26;;;;;;;11.85;8.13;;;;;;;;;;5069145;28;20052;-83
2022/07/20 13:24:52;;;;;;;11.27;8.02;;;;;;;;;;5059579;28;20020;-83
2022/07/20 13:27:17;;;;;;;13.70;7.80;;;;;;;;;;5044397;28;20488;-81
2022/07/20 13:29:42;;;;;;;10.73;7.70;;;;;;;;;;5049074;28;20045;-82
2022/07/20 13:32:08;;;;;;;16.50;7.45;;;;;;;;;;5054502;28;20053;-84
2022/07/20 13:34:33;;;;;;;12.52;7.68;;;;;;;;;;5050303;28;20056;-84
2022/07/20 13:37:04;;;;;;;11.85;8.13;;;;;;;;;;5048194;28;20123;-84
2022/07/20 13:39:30;;;;;;;10.15;7.53;;;;;;;;;;5038771;28;20029;-83
2022/07/20 13:41:55;;;;;;;11.98;8.65;;;;;;;;;;5056959;28;20036;-84
2022/07/20 13:44:21;;;;;;;12.65;7.80;;;;;;;;;;5067165;28;20041;-83
2022/07/20 13:46:47;;;;;;;11.63;8.02;;;;;;;;;;5053699;28;20032;-83
2022/07/20 13:51:43;;;;;;;16.45;8.40;;;;;;;;;;5097260;22;20391;-82
2022/07/20 13:54:09;;;;;;;10.60;7.63;;;;;;;;;;5107117;28;20398;-83
2022/07/20 13:56:34;;;;;;;15.07;8.05;;;;;;;;;;5094233;28;20028;-83
2022/07/20 13:59:13;;;;;;;19.63;8.85;;;;;;;;;;5096613;28;20474;-81
2022/07/20 14:01:47;;;;;;;12.45;8.77;;;;;;;;;;5076194;28;20087;-82
2022/07/20 14:04:14;;;;;;;10.65;8.00;;;;;;;;;;5075681;28;20067;-82
2022/07/20 14:06:47;;;;;;;14.50;8.68;;;;;;;;;;5074060;28;20099;-83
2022/07/20 14:09:13;;;;;;;23.70;8.57;;;;;;;;;;5075997;28;20115;-83
2022/07/20 14:11:46;;;;;;;10.90;7.57;;;;;;;;;;5078363;28;20059;-83
2022/07/20 14:14:12;;;;;;;13.40;7.95;;;;;;;;;;5078629;28;20502;-83
2022/07/20 14:16:40;;;;;;;16.58;8.65;;;;;;;;;;5080246;28;20020;-82
2022/07/20 14:19:08;;;;;;;16.70;8.50;;;;;;;;;;5087168;28;20023;-82
2022/07/20 14:21:38;;;;;;;11.93;8.00;;;;;;;;;;5084354;28;20541;-84
2022/07/20 14:24:05;;;;;;;13.33;8.13;;;;;;;;;;5061420;28;20025;-83
2022/07/20 14:26:31;;;;;;;14.27;8.90;;;;;;;;;;5083854;28;20020;-83
2022/07/20 14:29:02;;;;;;;11.60;8.02;;;;;;;;;;5073227;28;20028;-83
2022/07/20 14:31:27;;;;;;;13.60;8.75;;;;;;;;;;5088651;28;20024;-83
2022/07/20 14:33:53;;;;;;;15.15;9.20;;;;;;;;;;5057357;28;20032;-83
2022/07/20 14:36:18;;;;;;;16.30;8.65;;;;;;;;;;5077514;28;20103;-83
2022/07/20 14:38:44;;;;;;;16.92;8.82;;;;;;;;;;5071610;28;20036;-82
2022/07/20 14:41:09;;;;;;;14.52;8.25;;;;;;;;;;5085520;28;20016;-83
2022/07/20 14:43:34;;;;;;;12.93;8.23;;;;;;;;;;5085343;28;20062;-83
2022/07/20 14:46:00;;;;;;;13.90;8.65;;;;;;;;;;5085822;28;20090;-83
2022/07/20 14:48:25;;;;;;;12.73;8.00;;;;;;;;;;5080742;28;20470;-82